createdAt,value
2019-04-26T00:02:29.543Z,10.90
2019-04-26T00:07:54.766Z,10.66
2019-04-26T00:13:24.474Z,10.73
2019-04-26T00:18:49.331Z,10.97
2019-04-26T00:21:18.666Z,10.75
2019-04-26T00:23:48.167Z,10.38
2019-04-26T00:26:17.858Z,10.67
2019-04-26T00:29:06.523Z,10.64
2019-04-26T00:31:35.873Z,10.57
2019-04-26T00:34:06.843Z,10.45
2019-04-26T00:36:36.184Z,10.64
2019-04-26T00:48:50.521Z,10.42
2019-04-26T00:51:19.916Z,10.60
2019-04-26T00:54:00.990Z,10.39
2019-04-26T01:00:16.879Z,10.54
2019-04-26T01:05:42.525Z,10.71
2019-04-26T01:08:12.118Z,10.67
2019-04-26T01:10:41.436Z,10.44
2019-04-26T01:13:10.772Z,10.56
2019-04-26T01:15:40.099Z,10.58
2019-04-26T01:18:09.452Z,10.76
2019-04-26T01:36:31.208Z,10.43
2019-04-26T01:42:48.217Z,10.43
2019-04-26T01:49:12.024Z,10.53
2019-04-26T01:52:19.949Z,10.39
2019-04-26T01:54:49.274Z,10.48
2019-04-26T02:00:45.119Z,10.34
2019-04-26T02:06:09.754Z,10.41
2019-04-26T02:08:39.079Z,10.34
2019-04-26T02:11:08.481Z,10.41
2019-04-26T02:13:37.805Z,10.60
2019-04-26T02:16:07.202Z,10.64
2019-04-26T02:18:36.966Z,10.67
2019-04-26T02:21:46.228Z,10.52
2019-04-26T02:24:34.735Z,10.49
2019-04-26T02:29:44.417Z,10.63
2019-04-26T02:35:16.185Z,10.55
2019-04-26T02:37:45.648Z,10.46
2019-04-26T02:40:35.135Z,10.45
2019-04-26T02:44:04.895Z,10.37
2019-04-26T02:52:58.302Z,10.37
2019-04-26T02:56:06.281Z,10.30
2019-04-26T02:59:14.383Z,10.31
2019-04-26T03:30:17.702Z,10.64
2019-04-26T03:33:26.355Z,10.85
2019-04-26T03:40:09.856Z,10.64
2019-04-26T03:43:17.873Z,10.64
2019-04-26T03:49:45.970Z,10.69
2019-04-26T04:04:41.616Z,10.71
2019-04-26T04:23:59.551Z,10.41
2019-04-26T04:27:07.540Z,10.39
2019-04-26T04:30:16.914Z,10.38
2019-04-26T04:33:24.820Z,10.43
2019-04-26T04:36:14.935Z,10.45
2019-04-26T04:43:16.227Z,10.58
2019-04-26T04:46:45.367Z,10.44
2019-04-26T05:08:06.687Z,10.75
2019-04-26T05:11:18.038Z,10.90
2019-04-26T05:14:25.958Z,10.73
2019-04-26T05:17:35.250Z,10.72
2019-04-26T05:20:43.178Z,10.73
2019-04-26T05:23:51.347Z,10.76
2019-04-26T05:31:08.986Z,10.76
2019-04-26T05:34:18.533Z,10.83
2019-04-26T05:37:26.464Z,10.80
2019-04-26T05:40:34.374Z,10.69
2019-04-26T05:47:06.089Z,10.60
2019-04-26T05:50:33.132Z,10.67
2019-04-26T05:53:42.376Z,10.82
2019-04-26T05:56:52.697Z,10.41
2019-04-26T06:15:34.819Z,10.28
2019-04-26T06:18:44.390Z,10.37
2019-04-26T06:25:27.622Z,10.30
2019-04-26T06:47:06.586Z,10.12
2019-04-26T06:59:19.635Z,9.93
2019-04-26T07:02:27.556Z,9.95
2019-04-26T07:12:18.757Z,10.04
2019-04-26T07:15:28.720Z,9.83
2019-04-26T07:18:41.926Z,9.70
2019-04-26T07:22:08.961Z,9.49
2019-04-26T07:25:18.200Z,9.40
2019-04-26T07:31:46.581Z,9.56
2019-04-26T07:37:56.571Z,9.78
2019-04-26T07:41:07.183Z,9.88
2019-04-26T07:44:36.468Z,9.85
2019-04-26T07:47:45.706Z,9.83
2019-04-26T07:50:53.709Z,9.78
2019-04-26T07:53:53.943Z,9.64
2019-04-26T08:02:57.757Z,9.64
2019-04-26T08:06:07.525Z,9.77
2019-04-26T08:09:26.213Z,9.76
2019-04-26T08:24:47.706Z,9.88
2019-04-26T08:43:35.703Z,10.00
2019-04-26T09:01:52.953Z,10.49
2019-04-26T09:05:02.191Z,10.37
2019-04-26T09:17:10.015Z,9.91
2019-04-26T09:19:39.347Z,10.08
2019-04-26T09:22:27.936Z,9.85
2019-04-26T09:25:11.192Z,9.98
2019-04-26T09:30:42.293Z,10.12
2019-04-26T09:33:49.651Z,10.27
2019-04-26T09:36:18.978Z,10.19
2019-04-26T09:38:48.318Z,10.29
2019-04-26T09:41:17.651Z,10.41
2019-04-26T09:43:48.949Z,10.48
2019-04-26T09:46:19.914Z,10.33
2019-04-26T09:48:56.990Z,10.36
2019-04-26T09:51:26.382Z,10.44
2019-04-26T09:53:55.899Z,10.43
2019-04-26T09:56:25.235Z,10.23
2019-04-26T09:58:54.563Z,10.46
2019-04-26T10:01:25.758Z,10.42
2019-04-26T10:03:54.987Z,10.53
2019-04-26T10:06:26.136Z,10.32
2019-04-26T10:08:55.387Z,10.09
2019-04-26T10:11:26.326Z,10.32
2019-04-26T10:13:57.527Z,10.30
2019-04-26T10:16:42.075Z,10.41
2019-04-26T10:19:10.064Z,10.15
2019-04-26T10:21:39.400Z,9.98
2019-04-26T10:24:08.830Z,10.17
2019-04-26T10:26:38.130Z,10.42
2019-04-26T10:29:07.535Z,10.36
2019-04-26T10:31:36.857Z,10.58
2019-04-26T10:34:07.663Z,10.47
2019-04-26T10:36:37.281Z,10.52
2019-04-26T10:39:09.127Z,10.57
2019-04-26T10:41:38.447Z,10.67
2019-04-26T10:44:07.776Z,10.77
2019-04-26T10:46:37.114Z,10.92
2019-04-26T10:49:26.113Z,10.52
2019-04-26T10:51:55.494Z,10.57
2019-04-26T10:54:25.185Z,10.81
2019-04-26T10:56:56.148Z,10.52
2019-04-26T10:59:31.777Z,10.92
2019-04-26T11:02:00.662Z,10.98
2019-04-26T11:04:30.059Z,10.95
2019-04-26T11:07:01.966Z,10.92
2019-04-26T11:09:30.691Z,10.76
2019-04-26T11:12:00.027Z,10.97
2019-04-26T11:14:29.358Z,10.73
2019-04-26T11:16:58.877Z,10.83
2019-04-26T11:19:28.415Z,10.83
2019-04-26T11:21:57.809Z,11.03
2019-04-26T11:24:27.130Z,10.80
2019-04-26T11:26:56.463Z,10.83
2019-04-26T11:29:28.729Z,10.69
2019-04-26T11:31:58.453Z,11.06
2019-04-26T11:34:27.882Z,11.26
2019-04-26T11:36:57.271Z,11.24
2019-04-26T11:39:28.223Z,11.20
2019-04-26T11:41:57.772Z,11.07
2019-04-26T11:44:27.637Z,11.25
2019-04-26T11:46:59.420Z,11.62
2019-04-26T11:49:29.108Z,11.47
2019-04-26T11:52:02.767Z,11.28
2019-04-26T11:54:29.870Z,10.98
2019-04-26T11:56:59.213Z,10.82
2019-04-26T11:59:30.544Z,11.33
2019-04-26T12:01:59.574Z,11.24
2019-04-26T12:04:39.500Z,10.94
2019-04-26T12:07:19.555Z,11.01
2019-04-26T12:09:53.337Z,10.94
2019-04-26T12:12:22.674Z,11.16
2019-04-26T12:14:52.014Z,11.05
2019-04-26T12:17:21.356Z,11.08
2019-04-26T12:19:52.188Z,11.19
2019-04-26T12:22:21.887Z,11.47
2019-04-26T12:24:51.221Z,11.48
2019-04-26T12:27:20.709Z,11.26
2019-04-26T12:29:50.029Z,11.57
2019-04-26T12:32:19.283Z,12.00
2019-04-26T12:34:48.607Z,12.41
2019-04-26T12:37:20.069Z,12.28
2019-04-26T12:39:48.985Z,11.69
2019-04-26T12:42:18.324Z,11.87
2019-04-26T12:44:52.314Z,11.87
2019-04-26T12:47:23.430Z,12.26
2019-04-26T12:49:54.461Z,11.68
2019-04-26T12:52:24.103Z,12.13
2019-04-26T12:54:53.573Z,12.13
2019-04-26T12:57:22.894Z,12.32
2019-04-26T12:59:52.317Z,12.25
2019-04-26T13:02:22.016Z,12.25
2019-04-26T13:04:51.361Z,11.80
2019-04-26T13:07:24.275Z,11.66
2019-04-26T13:10:01.096Z,11.69
2019-04-26T13:12:42.396Z,11.74
2019-04-26T13:15:40.249Z,11.37
2019-04-26T13:18:11.289Z,11.61
2019-04-26T13:20:40.635Z,11.95
2019-04-26T13:23:09.958Z,11.96
2019-04-26T13:25:40.563Z,11.96
2019-04-26T13:28:10.140Z,11.77
2019-04-26T13:30:40.102Z,11.51
2019-04-26T13:33:10.137Z,11.35
2019-04-26T13:35:41.348Z,11.18
2019-04-26T13:38:10.548Z,11.16
2019-04-26T13:40:40.324Z,11.08
2019-04-26T13:43:09.751Z,10.89
2019-04-26T13:45:52.769Z,10.89
2019-04-26T13:48:43.821Z,10.98
2019-04-26T13:51:15.841Z,10.97
2019-04-26T13:53:45.245Z,10.97
2019-04-26T13:56:14.578Z,10.75
2019-04-26T13:58:44.014Z,10.81
2019-04-26T14:01:14.567Z,10.93
2019-04-26T14:03:44.377Z,10.83
2019-04-26T14:06:13.710Z,11.10
2019-04-26T14:08:43.029Z,11.04
2019-04-26T14:11:12.365Z,10.98
2019-04-26T14:13:41.745Z,11.27
2019-04-26T14:16:11.505Z,11.54
2019-04-26T14:18:40.869Z,11.60
2019-04-26T14:21:10.191Z,11.63
2019-04-26T14:23:45.342Z,11.86
2019-04-26T14:26:28.694Z,11.97
2019-04-26T14:28:59.436Z,12.04
2019-04-26T14:31:29.028Z,11.61
2019-04-26T14:34:01.174Z,11.54
2019-04-26T14:36:29.668Z,11.47
2019-04-26T14:39:05.712Z,11.26
2019-04-26T14:41:30.185Z,11.18
2019-04-26T14:43:59.817Z,11.04
2019-04-26T14:46:29.147Z,10.95
2019-04-26T14:49:01.928Z,11.41
2019-04-26T14:51:30.480Z,11.84
2019-04-26T14:53:59.806Z,11.67
2019-04-26T14:56:30.835Z,12.45
2019-04-26T14:59:01.715Z,12.11
2019-04-26T15:01:35.205Z,12.42
2019-04-26T15:04:23.244Z,12.29
2019-04-26T15:06:58.241Z,12.29
2019-04-26T15:09:32.935Z,13.00
2019-04-26T15:12:00.979Z,13.00
2019-04-26T15:14:27.782Z,13.59
2019-04-26T15:16:57.112Z,13.37
2019-04-26T15:19:26.669Z,13.37
2019-04-26T15:21:55.996Z,13.13
2019-04-26T15:24:25.996Z,13.13
2019-04-26T15:26:58.162Z,13.01
2019-04-26T15:29:27.209Z,13.01
2019-04-26T15:31:58.339Z,13.01
2019-04-26T15:34:27.891Z,12.53
2019-04-26T15:36:57.213Z,12.53
2019-04-26T15:39:36.791Z,12.48
2019-04-26T15:45:15.093Z,12.04
2019-04-26T15:47:58.611Z,12.04
2019-04-26T15:50:48.419Z,12.29
2019-04-26T15:53:15.628Z,12.29
2019-04-26T15:55:45.033Z,12.25
2019-04-26T15:58:14.422Z,12.25
2019-04-26T16:00:43.821Z,12.44
2019-04-26T16:03:32.872Z,12.31
2019-04-26T16:06:23.651Z,12.15
2019-04-26T16:08:59.213Z,12.06
2019-04-26T16:11:28.559Z,12.34
2019-04-26T16:13:57.900Z,12.23
2019-04-26T16:16:29.148Z,12.25
2019-04-26T16:19:17.391Z,12.10
2019-04-26T16:21:48.182Z,12.07
2019-04-26T16:24:35.662Z,11.93
2019-04-26T16:27:05.063Z,11.93
2019-04-26T16:29:58.408Z,11.90
2019-04-26T16:32:54.154Z,12.04
2019-04-26T16:38:44.329Z,11.56
2019-04-26T16:41:13.650Z,11.56
2019-04-26T16:46:33.413Z,11.94
2019-04-26T16:49:12.389Z,11.78
2019-04-26T16:52:01.830Z,11.41
2019-04-26T16:54:29.153Z,11.57
2019-04-26T16:56:58.850Z,11.54
2019-04-26T16:59:35.278Z,11.29
2019-04-26T17:00:46.617Z,11.86
2019-04-26T17:02:04.680Z,11.56
2019-04-26T17:04:43.414Z,11.25
2019-04-26T17:07:22.290Z,11.20
2019-04-26T17:09:58.926Z,11.29
2019-04-26T17:12:30.810Z,11.16
2019-04-26T17:15:00.159Z,11.08
2019-04-26T17:17:29.482Z,11.17
2019-04-26T17:19:58.813Z,11.14
2019-04-26T17:22:56.868Z,11.07
2019-04-26T17:25:43.289Z,10.92
2019-04-26T17:28:14.035Z,11.22
2019-04-26T17:31:02.810Z,11.07
2019-04-26T17:33:32.645Z,11.01
2019-04-26T17:36:22.268Z,11.08
2019-04-26T17:38:51.609Z,11.44
2019-04-26T17:41:20.942Z,11.26
2019-04-26T17:44:12.686Z,11.39
2019-04-26T17:47:02.071Z,11.13
2019-04-26T17:49:40.182Z,10.93
2019-04-26T17:52:13.064Z,11.10
2019-04-26T17:54:47.480Z,11.06
2019-04-26T17:57:36.738Z,11.12
2019-04-26T18:03:14.686Z,11.05
2019-04-26T18:06:01.479Z,11.05
2019-04-26T18:08:37.023Z,11.02
2019-04-26T18:11:24.724Z,11.17
2019-04-26T18:13:58.056Z,11.01
2019-04-26T18:16:29.690Z,11.13
2019-04-26T18:19:24.751Z,11.06
2019-04-26T18:24:54.519Z,10.89
2019-04-26T18:27:24.053Z,11.00
2019-04-26T18:30:53.887Z,10.95
2019-04-26T18:33:26.003Z,10.83
2019-04-26T18:36:13.439Z,10.79
2019-04-26T18:38:48.473Z,10.81
2019-04-26T18:41:33.954Z,10.88
2019-04-26T18:44:09.543Z,10.70
2019-04-26T18:46:58.076Z,10.56
2019-04-26T18:49:27.646Z,10.62
2019-04-26T18:51:57.248Z,10.65
2019-04-26T18:54:47.817Z,10.67
2019-04-26T18:57:24.480Z,10.53
2019-04-26T18:59:53.833Z,10.43
2019-04-26T19:05:23.534Z,10.50
2019-04-26T19:07:55.618Z,10.48
2019-04-26T19:10:43.073Z,10.54
2019-04-26T19:13:36.603Z,10.67
2019-04-26T19:16:40.772Z,10.39
2019-04-26T19:22:20.880Z,10.24
2019-04-26T19:24:57.425Z,10.42
2019-04-26T19:27:33.274Z,10.60
2019-04-26T19:30:27.791Z,10.52
2019-04-26T19:32:57.096Z,10.54
2019-04-26T19:35:26.425Z,10.48
2019-04-26T19:37:56.070Z,10.48
2019-04-26T19:40:27.391Z,10.49
2019-04-26T19:43:07.394Z,10.50
2019-04-26T19:45:57.294Z,10.54
2019-04-26T19:48:49.499Z,10.49
2019-04-26T19:52:14.314Z,10.52
2019-04-26T19:55:02.770Z,10.62
2019-04-26T20:00:28.313Z,10.55
2019-04-26T20:02:57.712Z,10.59
2019-04-26T20:05:27.124Z,10.59
2019-04-26T20:07:58.405Z,10.45
2019-04-26T20:10:46.815Z,10.62
2019-04-26T20:13:16.699Z,10.68
2019-04-26T20:16:06.451Z,10.46
2019-04-26T20:18:38.960Z,10.63
2019-04-26T20:21:25.858Z,10.62
2019-04-26T20:23:55.179Z,10.63
2019-04-26T20:26:24.521Z,10.66
2019-04-26T20:28:53.849Z,10.68
2019-04-26T20:31:47.605Z,10.65
2019-04-26T20:34:18.856Z,10.72
2019-04-26T20:36:48.194Z,10.69
2019-04-26T20:39:38.490Z,10.69
2019-04-26T20:42:07.830Z,10.67
2019-04-26T20:44:49.047Z,10.71
2019-04-26T20:47:17.418Z,10.68
2019-04-26T20:50:00.264Z,10.60
2019-04-26T20:52:26.479Z,10.62
2019-04-26T20:54:55.879Z,10.55
2019-04-26T20:57:26.622Z,10.45
2019-04-26T21:00:54.098Z,10.48
2019-04-26T21:03:27.824Z,10.53
2019-04-26T21:06:02.927Z,10.57
2019-04-26T21:08:38.038Z,10.52
2019-04-26T21:11:07.385Z,10.52
2019-04-26T21:13:42.515Z,10.39
2019-04-26T21:16:15.188Z,10.41
2019-04-26T21:19:01.993Z,10.30
2019-04-26T21:21:32.079Z,10.34
2019-04-26T21:27:51.735Z,10.29
2019-04-26T21:30:59.435Z,10.38
2019-04-26T21:36:27.658Z,10.35
2019-04-26T21:39:16.183Z,10.35
2019-04-26T21:44:26.360Z,10.21
2019-04-26T21:46:58.696Z,10.16
2019-04-26T21:49:32.652Z,10.27
2019-04-26T21:52:08.598Z,10.35
2019-04-26T21:54:37.941Z,10.15
2019-04-26T21:57:07.443Z,10.06
2019-04-26T21:59:40.990Z,10.18
2019-04-26T22:02:29.757Z,10.22
2019-04-26T22:05:08.048Z,10.10
2019-04-26T22:07:47.456Z,10.21
2019-04-26T22:13:37.254Z,9.81
2019-04-26T22:19:27.970Z,9.67
2019-04-26T22:22:23.224Z,9.80
2019-04-26T22:25:17.365Z,9.76
2019-04-26T22:27:46.690Z,9.86
2019-04-26T22:32:58.430Z,9.76
2019-04-26T22:35:46.477Z,9.64
2019-04-26T22:38:17.584Z,9.91
2019-04-26T22:40:55.928Z,9.67
2019-04-26T22:46:50.406Z,9.74
2019-04-26T22:52:28.842Z,9.51
2019-04-26T22:54:58.180Z,9.54
2019-04-26T22:57:27.577Z,9.59
2019-04-26T22:59:56.913Z,9.72
2019-04-26T23:02:27.664Z,9.79
2019-04-26T23:08:14.413Z,9.39
2019-04-26T23:13:42.947Z,9.67
2019-04-26T23:16:40.443Z,9.59
2019-04-26T23:19:54.255Z,9.50
2019-04-26T23:25:27.720Z,9.63
2019-04-26T23:28:01.159Z,9.47
2019-04-26T23:30:35.645Z,9.45
2019-04-26T23:33:05.053Z,9.46
2019-04-26T23:35:37.420Z,9.45
2019-04-26T23:38:11.241Z,9.45
2019-04-26T23:40:40.566Z,9.49
2019-04-26T23:43:09.927Z,9.36
2019-04-26T23:45:58.591Z,9.35
2019-04-26T23:48:27.949Z,9.33
2019-04-26T23:50:59.819Z,9.32
2019-04-26T23:53:35.913Z,9.43
2019-04-26T23:56:10.402Z,9.44
2019-04-26T23:58:40.230Z,9.44
